sensor_id;sensor_type;location;lat;lon;timestamp;P1;durP1;ratioP1;P2;durP2;ratioP2
40373;SDS011;26079;45.958;12.492;2023-11-19T00:00:45;49.25;;;29.48;;
40373;SDS011;26079;45.958;12.492;2023-11-19T00:03:10;45.65;;;27.98;;
40373;SDS011;26079;45.958;12.492;2023-11-19T00:05:38;45.58;;;30.15;;
40373;SDS011;26079;45.958;12.492;2023-11-19T00:08:04;43.92;;;30.60;;
40373;SDS011;26079;45.958;12.492;2023-11-19T00:10:31;42.15;;;26.85;;
40373;SDS011;26079;45.958;12.492;2023-11-19T00:12:56;44.83;;;31.27;;
40373;SDS011;26079;45.958;12.492;2023-11-19T00:15:22;40.47;;;28.90;;
40373;SDS011;26079;45.958;12.492;2023-11-19T00:17:49;38.78;;;30.55;;
40373;SDS011;26079;45.958;12.492;2023-11-19T00:20:15;44.35;;;31.88;;
40373;SDS011;26079;45.958;12.492;2023-11-19T00:22:46;44.75;;;32.55;;
40373;SDS011;26079;45.958;12.492;2023-11-19T00:25:16;46.13;;;34.05;;
40373;SDS011;26079;45.958;12.492;2023-11-19T00:27:42;44.38;;;33.70;;
40373;SDS011;26079;45.958;12.492;2023-11-19T00:32:40;47.63;;;28.33;;
40373;SDS011;26079;45.958;12.492;2023-11-19T00:35:07;46.95;;;27.90;;
40373;SDS011;26079;45.958;12.492;2023-11-19T00:37:33;44.67;;;29.65;;
40373;SDS011;26079;45.958;12.492;2023-11-19T00:39:59;44.85;;;30.40;;
40373;SDS011;26079;45.958;12.492;2023-11-19T00:42:24;38.05;;;25.70;;
40373;SDS011;26079;45.958;12.492;2023-11-19T00:44:50;39.58;;;26.85;;
40373;SDS011;26079;45.958;12.492;2023-11-19T00:47:16;40.40;;;28.17;;
40373;SDS011;26079;45.958;12.492;2023-11-19T00:49:45;34.97;;;26.58;;
40373;SDS011;26079;45.958;12.492;2023-11-19T00:52:13;38.97;;;25.80;;
40373;SDS011;26079;45.958;12.492;2023-11-19T00:54:39;38.85;;;24.52;;
40373;SDS011;26079;45.958;12.492;2023-11-19T00:57:05;34.38;;;25.50;;
40373;SDS011;26079;45.958;12.492;2023-11-19T00:59:31;34.85;;;23.70;;
40373;SDS011;26079;45.958;12.492;2023-11-19T01:01:57;28.63;;;20.10;;
40373;SDS011;26079;45.958;12.492;2023-11-19T01:04:28;38.97;;;21.25;;
40373;SDS011;26079;45.958;12.492;2023-11-19T01:06:54;32.35;;;24.48;;
40373;SDS011;26079;45.958;12.492;2023-11-19T01:09:19;34.55;;;23.27;;
40373;SDS011;26079;45.958;12.492;2023-11-19T01:11:45;32.90;;;22.58;;
40373;SDS011;26079;45.958;12.492;2023-11-19T01:14:11;32.28;;;23.73;;
40373;SDS011;26079;45.958;12.492;2023-11-19T01:16:36;32.00;;;22.30;;
40373;SDS011;26079;45.958;12.492;2023-11-19T01:19:02;36.10;;;23.75;;
40373;SDS011;26079;45.958;12.492;2023-11-19T01:21:30;34.33;;;22.05;;
40373;SDS011;26079;45.958;12.492;2023-11-19T01:23:57;30.90;;;21.70;;
40373;SDS011;26079;45.958;12.492;2023-11-19T01:26:23;34.20;;;23.63;;
40373;SDS011;26079;45.958;12.492;2023-11-19T01:28:49;35.28;;;23.35;;
40373;SDS011;26079;45.958;12.492;2023-11-19T01:31:17;33.05;;;22.83;;
40373;SDS011;26079;45.958;12.492;2023-11-19T01:33:43;42.03;;;22.73;;
40373;SDS011;26079;45.958;12.492;2023-11-19T01:36:09;37.33;;;24.90;;
40373;SDS011;26079;45.958;12.492;2023-11-19T01:38:38;38.63;;;25.92;;
40373;SDS011;26079;45.958;12.492;2023-11-19T01:41:04;44.28;;;29.30;;
40373;SDS011;26079;45.958;12.492;2023-11-19T01:43:33;30.50;;;23.40;;
40373;SDS011;26079;45.958;12.492;2023-11-19T01:46:04;29.80;;;22.08;;
40373;SDS011;26079;45.958;12.492;2023-11-19T01:48:33;35.72;;;23.67;;
40373;SDS011;26079;45.958;12.492;2023-11-19T01:53:30;37.67;;;24.20;;
40373;SDS011;26079;45.958;12.492;2023-11-19T01:55:57;35.03;;;23.35;;
40373;SDS011;26079;45.958;12.492;2023-11-19T01:58:23;30.75;;;22.92;;
40373;SDS011;26079;45.958;12.492;2023-11-19T02:00:49;39.22;;;23.45;;
40373;SDS011;26079;45.958;12.492;2023-11-19T02:03:15;37.03;;;23.77;;
40373;SDS011;26079;45.958;12.492;2023-11-19T02:05:42;42.03;;;25.63;;
40373;SDS011;26079;45.958;12.492;2023-11-19T02:08:08;34.92;;;24.95;;
40373;SDS011;26079;45.958;12.492;2023-11-19T02:10:34;40.65;;;27.40;;
40373;SDS011;26079;45.958;12.492;2023-11-19T02:13:00;34.13;;;23.38;;
40373;SDS011;26079;45.958;12.492;2023-11-19T02:15:27;35.70;;;25.23;;
40373;SDS011;26079;45.958;12.492;2023-11-19T02:17:53;34.97;;;23.15;;
40373;SDS011;26079;45.958;12.492;2023-11-19T02:20:19;36.92;;;24.52;;
40373;SDS011;26079;45.958;12.492;2023-11-19T02:22:48;40.38;;;24.83;;
40373;SDS011;26079;45.958;12.492;2023-11-19T02:25:23;38.15;;;23.23;;
40373;SDS011;26079;45.958;12.492;2023-11-19T02:27:58;31.25;;;25.70;;
40373;SDS011;26079;45.958;12.492;2023-11-19T02:30:26;37.55;;;24.08;;
40373;SDS011;26079;45.958;12.492;2023-11-19T02:32:55;30.17;;;22.88;;
40373;SDS011;26079;45.958;12.492;2023-11-19T02:35:23;28.85;;;23.02;;
40373;SDS011;26079;45.958;12.492;2023-11-19T02:37:49;31.80;;;22.13;;
40373;SDS011;26079;45.958;12.492;2023-11-19T02:40:14;28.50;;;20.88;;
40373;SDS011;26079;45.958;12.492;2023-11-19T02:42:40;30.50;;;21.15;;
40373;SDS011;26079;45.958;12.492;2023-11-19T02:45:07;40.83;;;22.60;;
40373;SDS011;26079;45.958;12.492;2023-11-19T02:47:35;27.73;;;21.58;;
40373;SDS011;26079;45.958;12.492;2023-11-19T02:50:01;32.85;;;25.17;;
40373;SDS011;26079;45.958;12.492;2023-11-19T02:52:27;28.10;;;20.45;;
40373;SDS011;26079;45.958;12.492;2023-11-19T02:54:53;33.58;;;21.92;;
40373;SDS011;26079;45.958;12.492;2023-11-19T02:57:19;27.58;;;19.27;;
40373;SDS011;26079;45.958;12.492;2023-11-19T02:59:46;25.90;;;18.83;;
40373;SDS011;26079;45.958;12.492;2023-11-19T03:02:11;26.77;;;19.15;;
40373;SDS011;26079;45.958;12.492;2023-11-19T03:04:37;26.02;;;18.10;;
40373;SDS011;26079;45.958;12.492;2023-11-19T03:07:09;22.60;;;18.20;;
40373;SDS011;26079;45.958;12.492;2023-11-19T03:09:34;19.90;;;17.70;;
40373;SDS011;26079;45.958;12.492;2023-11-19T03:12:00;28.08;;;19.17;;
40373;SDS011;26079;45.958;12.492;2023-11-19T03:14:27;20.15;;;15.82;;
40373;SDS011;26079;45.958;12.492;2023-11-19T03:16:53;24.80;;;18.30;;
40373;SDS011;26079;45.958;12.492;2023-11-19T03:19:19;19.42;;;15.15;;
40373;SDS011;26079;45.958;12.492;2023-11-19T03:21:44;18.88;;;14.60;;
40373;SDS011;26079;45.958;12.492;2023-11-19T03:24:13;19.52;;;15.70;;
40373;SDS011;26079;45.958;12.492;2023-11-19T03:26:39;20.35;;;15.27;;
40373;SDS011;26079;45.958;12.492;2023-11-19T03:29:05;19.50;;;13.35;;
40373;SDS011;26079;45.958;12.492;2023-11-19T03:31:30;17.55;;;14.45;;
40373;SDS011;26079;45.958;12.492;2023-11-19T03:33:56;17.73;;;14.25;;
40373;SDS011;26079;45.958;12.492;2023-11-19T03:36:22;20.77;;;14.55;;
40373;SDS011;26079;45.958;12.492;2023-11-19T03:38:47;20.02;;;15.13;;
40373;SDS011;26079;45.958;12.492;2023-11-19T03:41:13;16.48;;;13.45;;
40373;SDS011;26079;45.958;12.492;2023-11-19T03:43:40;17.90;;;14.55;;
40373;SDS011;26079;45.958;12.492;2023-11-19T03:46:16;22.13;;;14.85;;
40373;SDS011;26079;45.958;12.492;2023-11-19T03:48:48;20.90;;;14.50;;
40373;SDS011;26079;45.958;12.492;2023-11-19T03:51:15;17.65;;;13.38;;
40373;SDS011;26079;45.958;12.492;2023-11-19T03:53:44;17.70;;;14.35;;
40373;SDS011;26079;45.958;12.492;2023-11-19T03:56:11;20.00;;;14.00;;
40373;SDS011;26079;45.958;12.492;2023-11-19T03:58:37;21.75;;;14.38;;
40373;SDS011;26079;45.958;12.492;2023-11-19T04:01:10;15.55;;;12.50;;
40373;SDS011;26079;45.958;12.492;2023-11-19T04:03:39;17.38;;;13.30;;
40373;SDS011;26079;45.958;12.492;2023-11-19T04:06:05;18.08;;;13.80;;
40373;SDS011;26079;45.958;12.492;2023-11-19T04:08:31;18.13;;;14.15;;
40373;SDS011;26079;45.958;12.492;2023-11-19T04:10:57;18.40;;;14.20;;
40373;SDS011;26079;45.958;12.492;2023-11-19T04:13:22;16.33;;;12.93;;
40373;SDS011;26079;45.958;12.492;2023-11-19T04:15:49;16.40;;;13.45;;
40373;SDS011;26079;45.958;12.492;2023-11-19T04:18:15;18.10;;;14.48;;
40373;SDS011;26079;45.958;12.492;2023-11-19T04:20:41;17.90;;;13.27;;
40373;SDS011;26079;45.958;12.492;2023-11-19T04:23:08;17.52;;;13.48;;
40373;SDS011;26079;45.958;12.492;2023-11-19T04:25:34;21.48;;;14.07;;
40373;SDS011;26079;45.958;12.492;2023-11-19T04:28:01;21.17;;;15.43;;
40373;SDS011;26079;45.958;12.492;2023-11-19T04:30:27;20.40;;;14.13;;
40373;SDS011;26079;45.958;12.492;2023-11-19T04:32:53;19.77;;;14.73;;
40373;SDS011;26079;45.958;12.492;2023-11-19T04:35:19;14.73;;;13.07;;
40373;SDS011;26079;45.958;12.492;2023-11-19T04:37:44;17.48;;;13.23;;
40373;SDS011;26079;45.958;12.492;2023-11-19T04:40:10;16.00;;;14.07;;
40373;SDS011;26079;45.958;12.492;2023-11-19T04:42:37;16.65;;;12.88;;
40373;SDS011;26079;45.958;12.492;2023-11-19T04:45:05;15.20;;;13.07;;
40373;SDS011;26079;45.958;12.492;2023-11-19T04:47:32;19.88;;;12.40;;
40373;SDS011;26079;45.958;12.492;2023-11-19T04:49:59;14.18;;;12.15;;
40373;SDS011;26079;45.958;12.492;2023-11-19T04:52:25;15.95;;;13.88;;
40373;SDS011;26079;45.958;12.492;2023-11-19T04:54:50;15.65;;;13.95;;
40373;SDS011;26079;45.958;12.492;2023-11-19T04:57:16;16.10;;;12.93;;
40373;SDS011;26079;45.958;12.492;2023-11-19T04:59:42;16.73;;;12.60;;
40373;SDS011;26079;45.958;12.492;2023-11-19T05:02:08;16.35;;;12.88;;
40373;SDS011;26079;45.958;12.492;2023-11-19T05:04:34;18.33;;;14.13;;
40373;SDS011;26079;45.958;12.492;2023-11-19T05:07:00;17.58;;;12.93;;
40373;SDS011;26079;45.958;12.492;2023-11-19T05:09:26;17.02;;;13.45;;
40373;SDS011;26079;45.958;12.492;2023-11-19T05:11:51;14.00;;;12.20;;
40373;SDS011;26079;45.958;12.492;2023-11-19T05:14:17;17.63;;;13.85;;
40373;SDS011;26079;45.958;12.492;2023-11-19T05:16:46;14.55;;;12.15;;
40373;SDS011;26079;45.958;12.492;2023-11-19T05:19:12;14.63;;;12.25;;
40373;SDS011;26079;45.958;12.492;2023-11-19T05:21:41;18.35;;;12.18;;
40373;SDS011;26079;45.958;12.492;2023-11-19T05:24:07;15.13;;;12.52;;
40373;SDS011;26079;45.958;12.492;2023-11-19T05:26:33;20.50;;;12.93;;
40373;SDS011;26079;45.958;12.492;2023-11-19T05:28:59;21.00;;;12.60;;
40373;SDS011;26079;45.958;12.492;2023-11-19T05:31:24;16.10;;;12.40;;
40373;SDS011;26079;45.958;12.492;2023-11-19T05:33:50;17.02;;;12.98;;
40373;SDS011;26079;45.958;12.492;2023-11-19T05:36:16;15.68;;;13.10;;
40373;SDS011;26079;45.958;12.492;2023-11-19T05:38:42;16.02;;;12.65;;
40373;SDS011;26079;45.958;12.492;2023-11-19T05:41:09;15.23;;;12.15;;
40373;SDS011;26079;45.958;12.492;2023-11-19T05:43:35;13.45;;;11.43;;
40373;SDS011;26079;45.958;12.492;2023-11-19T05:46:01;21.25;;;14.45;;
40373;SDS011;26079;45.958;12.492;2023-11-19T05:48:27;14.70;;;11.93;;
40373;SDS011;26079;45.958;12.492;2023-11-19T05:50:53;17.55;;;13.65;;
40373;SDS011;26079;45.958;12.492;2023-11-19T05:53:18;27.45;;;13.10;;
40373;SDS011;26079;45.958;12.492;2023-11-19T05:55:44;16.30;;;13.20;;
40373;SDS011;26079;45.958;12.492;2023-11-19T05:58:14;19.25;;;15.05;;
40373;SDS011;26079;45.958;12.492;2023-11-19T06:00:40;15.27;;;12.25;;
40373;SDS011;26079;45.958;12.492;2023-11-19T06:03:06;13.45;;;11.20;;
40373;SDS011;26079;45.958;12.492;2023-11-19T06:05:32;15.73;;;11.68;;
40373;SDS011;26079;45.958;12.492;2023-11-19T06:07:58;13.48;;;12.07;;
40373;SDS011;26079;45.958;12.492;2023-11-19T06:10:24;15.43;;;12.15;;
40373;SDS011;26079;45.958;12.492;2023-11-19T06:12:56;16.80;;;11.98;;
40373;SDS011;26079;45.958;12.492;2023-11-19T06:15:24;18.75;;;12.32;;
40373;SDS011;26079;45.958;12.492;2023-11-19T06:17:53;15.65;;;12.20;;
40373;SDS011;26079;45.958;12.492;2023-11-19T06:20:20;16.45;;;11.07;;
40373;SDS011;26079;45.958;12.492;2023-11-19T06:22:45;14.60;;;12.15;;
40373;SDS011;26079;45.958;12.492;2023-11-19T06:25:11;17.42;;;13.23;;
40373;SDS011;26079;45.958;12.492;2023-11-19T06:27:40;13.77;;;11.27;;
40373;SDS011;26079;45.958;12.492;2023-11-19T06:30:06;12.77;;;11.25;;
40373;SDS011;26079;45.958;12.492;2023-11-19T06:32:33;12.25;;;10.93;;
40373;SDS011;26079;45.958;12.492;2023-11-19T06:34:58;12.85;;;10.43;;
40373;SDS011;26079;45.958;12.492;2023-11-19T06:37:24;19.27;;;11.60;;
40373;SDS011;26079;45.958;12.492;2023-11-19T06:39:49;13.52;;;12.20;;
40373;SDS011;26079;45.958;12.492;2023-11-19T06:42:15;12.75;;;11.25;;
40373;SDS011;26079;45.958;12.492;2023-11-19T06:44:42;13.18;;;10.43;;
40373;SDS011;26079;45.958;12.492;2023-11-19T06:47:07;15.68;;;11.98;;
40373;SDS011;26079;45.958;12.492;2023-11-19T06:49:33;13.27;;;10.40;;
40373;SDS011;26079;45.958;12.492;2023-11-19T06:51:59;12.70;;;11.43;;
40373;SDS011;26079;45.958;12.492;2023-11-19T06:54:24;16.38;;;13.23;;
40373;SDS011;26079;45.958;12.492;2023-11-19T06:56:50;20.55;;;15.43;;
40373;SDS011;26079;45.958;12.492;2023-11-19T06:59:16;25.08;;;16.30;;
40373;SDS011;26079;45.958;12.492;2023-11-19T07:01:42;23.80;;;19.02;;
40373;SDS011;26079;45.958;12.492;2023-11-19T07:04:12;20.35;;;16.13;;
40373;SDS011;26079;45.958;12.492;2023-11-19T07:06:38;27.35;;;16.63;;
40373;SDS011;26079;45.958;12.492;2023-11-19T07:09:07;18.80;;;13.55;;
40373;SDS011;26079;45.958;12.492;2023-11-19T07:11:39;19.20;;;12.25;;
40373;SDS011;26079;45.958;12.492;2023-11-19T07:14:06;14.82;;;11.90;;
40373;SDS011;26079;45.958;12.492;2023-11-19T07:16:33;16.10;;;12.38;;
40373;SDS011;26079;45.958;12.492;2023-11-19T07:19:07;13.00;;;10.80;;
40373;SDS011;26079;45.958;12.492;2023-11-19T07:21:33;14.68;;;11.27;;
40373;SDS011;26079;45.958;12.492;2023-11-19T07:23:59;17.80;;;15.18;;
40373;SDS011;26079;45.958;12.492;2023-11-19T07:26:25;16.50;;;12.50;;
40373;SDS011;26079;45.958;12.492;2023-11-19T07:28:52;15.27;;;12.30;;
40373;SDS011;26079;45.958;12.492;2023-11-19T07:31:17;13.95;;;12.45;;
40373;SDS011;26079;45.958;12.492;2023-11-19T07:33:46;16.63;;;13.63;;
40373;SDS011;26079;45.958;12.492;2023-11-19T07:36:13;14.75;;;13.15;;
40373;SDS011;26079;45.958;12.492;2023-11-19T07:38:38;13.18;;;11.88;;
40373;SDS011;26079;45.958;12.492;2023-11-19T07:41:05;13.10;;;11.60;;
40373;SDS011;26079;45.958;12.492;2023-11-19T07:43:32;24.27;;;19.10;;
40373;SDS011;26079;45.958;12.492;2023-11-19T07:45:58;24.70;;;18.58;;
40373;SDS011;26079;45.958;12.492;2023-11-19T07:48:24;23.08;;;18.90;;
40373;SDS011;26079;45.958;12.492;2023-11-19T07:50:55;17.30;;;14.75;;
40373;SDS011;26079;45.958;12.492;2023-11-19T07:53:26;18.00;;;16.08;;
40373;SDS011;26079;45.958;12.492;2023-11-19T07:55:52;13.43;;;11.40;;
40373;SDS011;26079;45.958;12.492;2023-11-19T07:58:20;11.63;;;10.43;;
40373;SDS011;26079;45.958;12.492;2023-11-19T08:00:46;11.93;;;10.80;;
40373;SDS011;26079;45.958;12.492;2023-11-19T08:03:12;11.48;;;10.05;;
40373;SDS011;26079;45.958;12.492;2023-11-19T08:05:37;10.23;;;9.23;;
40373;SDS011;26079;45.958;12.492;2023-11-19T08:08:04;10.90;;;9.80;;
40373;SDS011;26079;45.958;12.492;2023-11-19T08:10:30;11.23;;;10.13;;
40373;SDS011;26079;45.958;12.492;2023-11-19T08:12:55;11.07;;;9.98;;
40373;SDS011;26079;45.958;12.492;2023-11-19T08:15:21;15.63;;;10.80;;
40373;SDS011;26079;45.958;12.492;2023-11-19T08:17:47;16.90;;;12.80;;
40373;SDS011;26079;45.958;12.492;2023-11-19T08:20:13;13.05;;;11.75;;
40373;SDS011;26079;45.958;12.492;2023-11-19T08:22:39;13.55;;;12.10;;
40373;SDS011;26079;45.958;12.492;2023-11-19T08:25:05;14.60;;;11.38;;
40373;SDS011;26079;45.958;12.492;2023-11-19T08:27:31;12.00;;;10.80;;
40373;SDS011;26079;45.958;12.492;2023-11-19T08:29:57;11.93;;;10.73;;
40373;SDS011;26079;45.958;12.492;2023-11-19T08:32:24;12.63;;;8.98;;
40373;SDS011;26079;45.958;12.492;2023-11-19T08:34:50;54.00;;;48.22;;
40373;SDS011;26079;45.958;12.492;2023-11-19T08:37:16;24.30;;;21.80;;
40373;SDS011;26079;45.958;12.492;2023-11-19T08:39:45;24.40;;;20.60;;
40373;SDS011;26079;45.958;12.492;2023-11-19T08:42:14;32.75;;;23.02;;
40373;SDS011;26079;45.958;12.492;2023-11-19T08:44:41;79.05;;;56.33;;
40373;SDS011;26079;45.958;12.492;2023-11-19T08:47:08;148.85;;;110.13;;
40373;SDS011;26079;45.958;12.492;2023-11-19T08:49:34;335.88;;;202.55;;
40373;SDS011;26079;45.958;12.492;2023-11-19T08:52:00;242.82;;;157.35;;
40373;SDS011;26079;45.958;12.492;2023-11-19T08:54:26;57.50;;;40.13;;
40373;SDS011;26079;45.958;12.492;2023-11-19T08:56:52;30.60;;;20.00;;
40373;SDS011;26079;45.958;12.492;2023-11-19T08:59:18;24.25;;;19.65;;
40373;SDS011;26079;45.958;12.492;2023-11-19T09:01:44;33.55;;;25.15;;
40373;SDS011;26079;45.958;12.492;2023-11-19T09:04:10;41.63;;;31.70;;
40373;SDS011;26079;45.958;12.492;2023-11-19T09:06:36;23.45;;;19.75;;
40373;SDS011;26079;45.958;12.492;2023-11-19T09:09:02;24.33;;;13.05;;
40373;SDS011;26079;45.958;12.492;2023-11-19T09:11:30;19.40;;;13.88;;
40373;SDS011;26079;45.958;12.492;2023-11-19T09:13:56;35.03;;;25.70;;
40373;SDS011;26079;45.958;12.492;2023-11-19T09:16:22;47.70;;;40.30;;
40373;SDS011;26079;45.958;12.492;2023-11-19T09:18:48;74.75;;;64.82;;
40373;SDS011;26079;45.958;12.492;2023-11-19T09:21:13;73.13;;;56.85;;
40373;SDS011;26079;45.958;12.492;2023-11-19T09:23:39;95.97;;;74.70;;
40373;SDS011;26079;45.958;12.492;2023-11-19T09:26:05;78.15;;;60.15;;
40373;SDS011;26079;45.958;12.492;2023-11-19T09:28:33;12.07;;;8.65;;
40373;SDS011;26079;45.958;12.492;2023-11-19T09:30:58;7.90;;;7.05;;
40373;SDS011;26079;45.958;12.492;2023-11-19T09:33:24;12.38;;;8.32;;
40373;SDS011;26079;45.958;12.492;2023-11-19T09:35:51;9.02;;;6.95;;
40373;SDS011;26079;45.958;12.492;2023-11-19T09:38:17;16.98;;;12.35;;
40373;SDS011;26079;45.958;12.492;2023-11-19T09:40:42;10.98;;;8.60;;
40373;SDS011;26079;45.958;12.492;2023-11-19T09:43:08;11.45;;;9.48;;
40373;SDS011;26079;45.958;12.492;2023-11-19T09:45:47;11.02;;;9.82;;
40373;SDS011;26079;45.958;12.492;2023-11-19T09:48:17;10.70;;;8.43;;
40373;SDS011;26079;45.958;12.492;2023-11-19T09:50:44;12.20;;;8.05;;
40373;SDS011;26079;45.958;12.492;2023-11-19T09:53:11;11.23;;;10.13;;
40373;SDS011;26079;45.958;12.492;2023-11-19T09:55:37;11.77;;;10.68;;
40373;SDS011;26079;45.958;12.492;2023-11-19T09:58:03;26.48;;;23.60;;
40373;SDS011;26079;45.958;12.492;2023-11-19T10:00:30;15.63;;;14.02;;
40373;SDS011;26079;45.958;12.492;2023-11-19T10:02:56;11.50;;;9.32;;
40373;SDS011;26079;45.958;12.492;2023-11-19T10:05:22;26.25;;;19.95;;
40373;SDS011;26079;45.958;12.492;2023-11-19T10:07:49;25.15;;;19.48;;
40373;SDS011;26079;45.958;12.492;2023-11-19T10:10:15;13.02;;;9.85;;
40373;SDS011;26079;45.958;12.492;2023-11-19T10:12:44;15.18;;;13.68;;
40373;SDS011;26079;45.958;12.492;2023-11-19T10:15:15;18.98;;;16.52;;
40373;SDS011;26079;45.958;12.492;2023-11-19T10:17:45;25.67;;;18.55;;
40373;SDS011;26079;45.958;12.492;2023-11-19T10:20:11;10.25;;;9.23;;
40373;SDS011;26079;45.958;12.492;2023-11-19T10:22:37;10.23;;;9.18;;
40373;SDS011;26079;45.958;12.492;2023-11-19T10:25:03;14.27;;;12.55;;
40373;SDS011;26079;45.958;12.492;2023-11-19T10:27:30;21.08;;;17.38;;
40373;SDS011;26079;45.958;12.492;2023-11-19T10:29:58;27.08;;;24.25;;
40373;SDS011;26079;45.958;12.492;2023-11-19T10:32:25;11.73;;;9.48;;
40373;SDS011;26079;45.958;12.492;2023-11-19T10:34:50;31.42;;;27.48;;
40373;SDS011;26079;45.958;12.492;2023-11-19T10:37:28;22.75;;;18.10;;
40373;SDS011;26079;45.958;12.492;2023-11-19T10:39:57;13.85;;;11.38;;
40373;SDS011;26079;45.958;12.492;2023-11-19T10:42:23;14.52;;;11.45;;
40373;SDS011;26079;45.958;12.492;2023-11-19T10:44:49;28.38;;;18.70;;
40373;SDS011;26079;45.958;12.492;2023-11-19T10:47:15;24.83;;;16.35;;
40373;SDS011;26079;45.958;12.492;2023-11-19T10:49:43;14.50;;;10.80;;
40373;SDS011;26079;45.958;12.492;2023-11-19T10:52:11;10.80;;;8.00;;
40373;SDS011;26079;45.958;12.492;2023-11-19T10:54:42;7.55;;;6.85;;
40373;SDS011;26079;45.958;12.492;2023-11-19T10:57:12;11.48;;;10.27;;
40373;SDS011;26079;45.958;12.492;2023-11-19T10:59:44;8.77;;;7.80;;
40373;SDS011;26079;45.958;12.492;2023-11-19T11:02:11;6.85;;;4.80;;
40373;SDS011;26079;45.958;12.492;2023-11-19T11:04:43;9.00;;;5.78;;
40373;SDS011;26079;45.958;12.492;2023-11-19T11:07:12;84.82;;;51.45;;
40373;SDS011;26079;45.958;12.492;2023-11-19T11:09:41;36.72;;;23.30;;
40373;SDS011;26079;45.958;12.492;2023-11-19T11:12:08;17.98;;;13.40;;
40373;SDS011;26079;45.958;12.492;2023-11-19T11:14:36;13.18;;;7.22;;
40373;SDS011;26079;45.958;12.492;2023-11-19T11:17:05;10.63;;;6.45;;
40373;SDS011;26079;45.958;12.492;2023-11-19T11:19:33;6.40;;;4.40;;
40373;SDS011;26079;45.958;12.492;2023-11-19T11:22:00;5.47;;;4.30;;
40373;SDS011;26079;45.958;12.492;2023-11-19T11:30:10;5.05;;;3.83;;
40373;SDS011;26079;45.958;12.492;2023-11-19T11:35:47;3.67;;;3.17;;
40373;SDS011;26079;45.958;12.492;2023-11-19T11:38:31;5.10;;;4.00;;
40373;SDS011;26079;45.958;12.492;2023-11-19T11:41:18;4.50;;;3.70;;
40373;SDS011;26079;45.958;12.492;2023-11-19T11:43:51;3.53;;;2.65;;
40373;SDS011;26079;45.958;12.492;2023-11-19T11:48:59;6.10;;;3.45;;
40373;SDS011;26079;45.958;12.492;2023-11-19T11:54:31;4.30;;;3.63;;
40373;SDS011;26079;45.958;12.492;2023-11-19T11:57:12;5.10;;;3.92;;
40373;SDS011;26079;45.958;12.492;2023-11-19T12:02:11;5.32;;;3.47;;
40373;SDS011;26079;45.958;12.492;2023-11-19T12:04:41;4.18;;;2.90;;
40373;SDS011;26079;45.958;12.492;2023-11-19T12:07:13;2.75;;;2.42;;
40373;SDS011;26079;45.958;12.492;2023-11-19T12:09:41;4.07;;;3.67;;
40373;SDS011;26079;45.958;12.492;2023-11-19T12:12:23;3.80;;;3.17;;
40373;SDS011;26079;45.958;12.492;2023-11-19T12:20:01;5.03;;;3.05;;
40373;SDS011;26079;45.958;12.492;2023-11-19T12:22:28;5.85;;;3.85;;
40373;SDS011;26079;45.958;12.492;2023-11-19T12:24:54;3.90;;;3.55;;
40373;SDS011;26079;45.958;12.492;2023-11-19T12:27:20;3.63;;;3.30;;
40373;SDS011;26079;45.958;12.492;2023-11-19T12:29:51;5.38;;;3.20;;
40373;SDS011;26079;45.958;12.492;2023-11-19T12:32:17;4.22;;;3.45;;
40373;SDS011;26079;45.958;12.492;2023-11-19T12:34:42;3.67;;;3.15;;
40373;SDS011;26079;45.958;12.492;2023-11-19T12:37:09;5.45;;;3.53;;
40373;SDS011;26079;45.958;12.492;2023-11-19T12:39:36;4.18;;;3.58;;
40373;SDS011;26079;45.958;12.492;2023-11-19T12:42:01;4.63;;;3.97;;
40373;SDS011;26079;45.958;12.492;2023-11-19T12:44:27;7.18;;;4.40;;
40373;SDS011;26079;45.958;12.492;2023-11-19T12:47:06;5.72;;;4.13;;
40373;SDS011;26079;45.958;12.492;2023-11-19T12:49:32;5.70;;;4.20;;
40373;SDS011;26079;45.958;12.492;2023-11-19T12:51:59;8.30;;;5.20;;
40373;SDS011;26079;45.958;12.492;2023-11-19T12:54:34;8.05;;;5.13;;
40373;SDS011;26079;45.958;12.492;2023-11-19T12:57:01;5.72;;;3.88;;
40373;SDS011;26079;45.958;12.492;2023-11-19T12:59:27;4.97;;;3.58;;
40373;SDS011;26079;45.958;12.492;2023-11-19T13:01:56;4.78;;;4.15;;
40373;SDS011;26079;45.958;12.492;2023-11-19T13:04:23;5.40;;;3.85;;
40373;SDS011;26079;45.958;12.492;2023-11-19T13:06:52;6.00;;;4.45;;
40373;SDS011;26079;45.958;12.492;2023-11-19T13:09:25;6.05;;;4.97;;
40373;SDS011;26079;45.958;12.492;2023-11-19T13:11:52;5.63;;;4.45;;
40373;SDS011;26079;45.958;12.492;2023-11-19T13:14:18;10.48;;;5.97;;
40373;SDS011;26079;45.958;12.492;2023-11-19T13:16:45;7.97;;;5.45;;
40373;SDS011;26079;45.958;12.492;2023-11-19T13:19:12;8.13;;;4.85;;
40373;SDS011;26079;45.958;12.492;2023-11-19T13:21:38;5.63;;;4.47;;
40373;SDS011;26079;45.958;12.492;2023-11-19T13:24:07;5.57;;;4.47;;
40373;SDS011;26079;45.958;12.492;2023-11-19T13:26:33;8.07;;;6.05;;
40373;SDS011;26079;45.958;12.492;2023-11-19T13:29:00;6.18;;;4.10;;
40373;SDS011;26079;45.958;12.492;2023-11-19T13:31:25;5.47;;;4.00;;
40373;SDS011;26079;45.958;12.492;2023-11-19T13:33:51;5.45;;;4.78;;
40373;SDS011;26079;45.958;12.492;2023-11-19T13:36:17;12.52;;;6.05;;
40373;SDS011;26079;45.958;12.492;2023-11-19T13:38:43;7.25;;;5.05;;
40373;SDS011;26079;45.958;12.492;2023-11-19T13:41:09;18.55;;;12.98;;
40373;SDS011;26079;45.958;12.492;2023-11-19T13:43:36;11.57;;;6.82;;
40373;SDS011;26079;45.958;12.492;2023-11-19T13:46:02;6.50;;;4.88;;
40373;SDS011;26079;45.958;12.492;2023-11-19T13:48:28;7.03;;;5.28;;
40373;SDS011;26079;45.958;12.492;2023-11-19T13:50:55;6.10;;;4.85;;
40373;SDS011;26079;45.958;12.492;2023-11-19T13:53:21;6.63;;;5.07;;
40373;SDS011;26079;45.958;12.492;2023-11-19T13:55:48;6.35;;;5.38;;
40373;SDS011;26079;45.958;12.492;2023-11-19T13:58:14;6.45;;;4.65;;
40373;SDS011;26079;45.958;12.492;2023-11-19T14:00:40;7.13;;;5.07;;
40373;SDS011;26079;45.958;12.492;2023-11-19T14:03:08;7.88;;;4.78;;
40373;SDS011;26079;45.958;12.492;2023-11-19T14:05:35;12.00;;;5.57;;
40373;SDS011;26079;45.958;12.492;2023-11-19T14:08:01;7.03;;;5.35;;
40373;SDS011;26079;45.958;12.492;2023-11-19T14:10:27;6.38;;;5.45;;
40373;SDS011;26079;45.958;12.492;2023-11-19T14:12:53;6.07;;;5.25;;
40373;SDS011;26079;45.958;12.492;2023-11-19T14:15:19;7.05;;;5.30;;
40373;SDS011;26079;45.958;12.492;2023-11-19T14:17:45;8.02;;;5.40;;
40373;SDS011;26079;45.958;12.492;2023-11-19T14:20:10;10.40;;;6.75;;
40373;SDS011;26079;45.958;12.492;2023-11-19T14:22:40;7.88;;;7.15;;
40373;SDS011;26079;45.958;12.492;2023-11-19T14:25:12;7.57;;;6.43;;
40373;SDS011;26079;45.958;12.492;2023-11-19T14:27:38;10.55;;;7.53;;
40373;SDS011;26079;45.958;12.492;2023-11-19T14:30:05;15.55;;;7.05;;
40373;SDS011;26079;45.958;12.492;2023-11-19T14:32:32;14.20;;;7.65;;
40373;SDS011;26079;45.958;12.492;2023-11-19T14:34:58;9.63;;;6.10;;
40373;SDS011;26079;45.958;12.492;2023-11-19T14:37:23;7.57;;;6.30;;
40373;SDS011;26079;45.958;12.492;2023-11-19T14:39:49;8.60;;;6.18;;